• pl
  • eng

Awiacja
TAF dla lotnisk wojskowych 15:30 25.02.2017

TAF EPBC 251400Z NIL=

TAF EPCE 251400Z 2515/2524 26010KT 9999 SCT034 BECMG 2517/2519
21008KT BKN017 TEMPO 2519/2524 4000 SNRA BKN005 BKN010 PROB40
TEMPO 2520/2524 1500 SN BKN003 =

TAF EPDA 251400Z 2515/2524 27012KT CAVOK BECMG 2517/2519 21012KT 5000
-RA BR BKN015 PROB40 2520/2524 3000 RADZ BR BKN005 OVC010 =

TAF EPDE 251400Z NIL=

TAF EPIR 251400Z NIL=

TAF EPKS 251400Z 2515/2524 22010KT 9999 BKN030
BECMG 2521/2524 BKN015 =

TAF EPLK 251400Z 2515/2524 26014KT CAVOK=

TAF EPLY 251400Z NIL=

TAF EPMB 251400Z 2515/2524 27012KT 9999 SCT040 BECMG 2517/2519 BKN020
OVC100 PROB40 TEMPO 2519/2521 4000 RASN SCT007 OVC012=

TAF EPMI 251400Z NIL=

TAF EPMM 251400Z NIL=

TAF EPOK 251400Z 2515/2524 27012KT CAVOK BECMG 2517/2519 21012KT
BECMG 2519/2522 21012KT 5000 RA BR BKN015 TEMPO 2520/2524 2500
RASN BR BKN007 =

TAF EPPW 251400Z 2515/2524 26012KT 9999 SCT027 BECMG 2515/2517
21008KT BECMG 2519/2521 BKN015=

TAF EPSN 251400Z 2515/2524 24012KT 9999 BKN027 BECMG 2519/2522 6000
RA BKN010 PROB40 TEMPO 2521/2524 4000 RA BKN007 =

TAF EPTM 251400Z 2515/2524 26008KT 9999 BKN030
PROB40 TEMPO 2521/2524 5000 BR =
Awiacja.imgw.pl jest pogodowym serwisem informacyjnym
Instytutu Meteorologii i Gospodarki Wodnej Państwowego Instytutu Badawczego.
Copyright IMGW PIB 2009-2011© Wszelkie prawa zastrzeżone.